sensor_id;sensor_type;location;lat;lon;timestamp;pressure;altitude;pressure_sealevel;temperature;humidity
32330;BME280;18807;52.434;13.238;2023-04-27T00:05:04;77069.81;;;-142.05;57.24
32330;BME280;18807;52.434;13.238;2023-04-27T00:12:38;77071.88;;;-142.05;57.61
32330;BME280;18807;52.434;13.238;2023-04-27T00:20:15;77073.91;;;-142.05;57.44
32330;BME280;18807;52.434;13.238;2023-04-27T00:27:50;77080.03;;;-142.05;57.65
32330;BME280;18807;52.434;13.238;2023-04-27T00:35:25;77078.00;;;-142.05;57.59
32330;BME280;18807;52.434;13.238;2023-04-27T00:42:59;77080.03;;;-142.05;57.91
32330;BME280;18807;52.434;13.238;2023-04-27T00:50:35;77094.31;;;-142.05;58.26
32330;BME280;18807;52.434;13.238;2023-04-27T00:58:10;77098.41;;;-142.05;58.92
32330;BME280;18807;52.434;13.238;2023-04-27T01:05:45;77102.50;;;-142.05;59.38
32330;BME280;18807;52.434;13.238;2023-04-27T01:13:19;77110.66;;;-142.05;59.50
32330;BME280;18807;52.434;13.238;2023-04-27T01:20:55;77116.78;;;-142.05;59.80
32330;BME280;18807;52.434;13.238;2023-04-27T01:28:30;77127.00;;;-142.05;59.98
32330;BME280;18807;52.434;13.238;2023-04-27T01:36:05;77143.31;;;-142.05;60.44
32330;BME280;18807;52.434;13.238;2023-04-27T01:43:40;77159.66;;;-142.05;60.97
32330;BME280;18807;52.434;13.238;2023-04-27T01:51:15;77171.91;;;-142.05;61.01
32330;BME280;18807;52.434;13.238;2023-04-27T01:58:51;77175.97;;;-142.05;61.88
32330;BME280;18807;52.434;13.238;2023-04-27T02:06:25;77178.03;;;-142.05;62.33
32330;BME280;18807;52.434;13.238;2023-04-27T02:14:01;77192.31;;;-142.05;62.38
32330;BME280;18807;52.434;13.238;2023-04-27T02:21:34;77202.53;;;-142.05;62.33
32330;BME280;18807;52.434;13.238;2023-04-27T02:29:10;77214.78;;;-142.05;62.29
32330;BME280;18807;52.434;13.238;2023-04-27T02:37:01;77218.88;;;-142.05;62.20
32330;BME280;18807;52.434;13.238;2023-04-27T02:44:37;77218.88;;;-142.05;62.75
32330;BME280;18807;52.434;13.238;2023-04-27T02:52:10;77222.94;;;-142.05;62.47
32330;BME280;18807;52.434;13.238;2023-04-27T02:59:46;77222.94;;;-142.05;62.35
32330;BME280;18807;52.434;13.238;2023-04-27T03:07:20;77225.00;;;-142.05;62.69
32330;BME280;18807;52.434;13.238;2023-04-27T03:15:13;77231.13;;;-142.05;63.04
32330;BME280;18807;52.434;13.238;2023-04-27T03:22:47;77251.53;;;-142.05;63.81
32330;BME280;18807;52.434;13.238;2023-04-27T03:30:23;77249.50;;;-142.05;63.85
32330;BME280;18807;52.434;13.238;2023-04-27T03:37:57;77271.94;;;-142.05;63.83
32330;BME280;18807;52.434;13.238;2023-04-27T03:45:32;77280.09;;;-142.05;63.95
32330;BME280;18807;52.434;13.238;2023-04-27T03:53:07;77296.44;;;-142.05;63.76
32330;BME280;18807;52.434;13.238;2023-04-27T04:00:43;77294.41;;;-142.05;63.90
32330;BME280;18807;52.434;13.238;2023-04-27T04:08:17;77310.72;;;-142.05;64.45
32330;BME280;18807;52.434;13.238;2023-04-27T04:16:01;77316.84;;;-142.05;64.66
32330;BME280;18807;52.434;13.238;2023-04-27T04:23:35;77322.97;;;-142.05;65.05
32330;BME280;18807;52.434;13.238;2023-04-27T04:31:11;77312.78;;;-142.05;64.75
32330;BME280;18807;52.434;13.238;2023-04-27T04:38:48;77320.94;;;-142.05;64.67
32330;BME280;18807;52.434;13.238;2023-04-27T04:46:25;77316.84;;;-142.05;64.58
32330;BME280;18807;52.434;13.238;2023-04-27T04:54:00;77308.69;;;-142.05;64.65
32330;BME280;18807;52.434;13.238;2023-04-27T05:01:35;77310.72;;;-142.05;64.39
32330;BME280;18807;52.434;13.238;2023-04-27T05:09:09;77318.91;;;-142.05;63.55
32330;BME280;18807;52.434;13.238;2023-04-27T05:16:45;77312.78;;;-142.05;63.54
32330;BME280;18807;52.434;13.238;2023-04-27T05:24:20;77308.69;;;-142.05;63.27
32330;BME280;18807;52.434;13.238;2023-04-27T05:31:55;77300.53;;;-142.05;62.36
32330;BME280;18807;52.434;13.238;2023-04-27T05:39:30;77298.47;;;-142.05;61.96
32330;BME280;18807;52.434;13.238;2023-04-27T05:47:05;77294.41;;;-142.05;60.57
32330;BME280;18807;52.434;13.238;2023-04-27T05:54:45;77306.66;;;-142.05;60.21
32330;BME280;18807;52.434;13.238;2023-04-27T06:02:21;77308.69;;;-142.05;59.78
32330;BME280;18807;52.434;13.238;2023-04-27T06:09:58;77288.28;;;-142.05;60.65
32330;BME280;18807;52.434;13.238;2023-04-27T06:17:33;77269.91;;;-142.05;59.63
32330;BME280;18807;52.434;13.238;2023-04-27T06:25:07;77261.72;;;-142.05;59.00
32330;BME280;18807;52.434;13.238;2023-04-27T06:32:43;77276.03;;;-142.05;57.81
32330;BME280;18807;52.434;13.238;2023-04-27T06:40:17;77273.97;;;-142.05;57.63
32330;BME280;18807;52.434;13.238;2023-04-27T06:47:53;77253.56;;;-142.05;58.05
32330;BME280;18807;52.434;13.238;2023-04-27T06:55:27;77249.50;;;-142.05;58.17
32330;BME280;18807;52.434;13.238;2023-04-27T07:03:02;77233.16;;;-142.05;57.01
32330;BME280;18807;52.434;13.238;2023-04-27T07:10:36;77198.44;;;-142.05;57.69
32330;BME280;18807;52.434;13.238;2023-04-27T07:18:12;77208.66;;;-142.05;55.51
32330;BME280;18807;52.434;13.238;2023-04-27T07:25:46;77200.50;;;-142.05;54.70
32330;BME280;18807;52.434;13.238;2023-04-27T07:33:22;77171.91;;;-142.05;55.40
32330;BME280;18807;52.434;13.238;2023-04-27T07:40:57;77175.97;;;-142.05;51.52
32330;BME280;18807;52.434;13.238;2023-04-27T07:48:32;77180.06;;;-142.05;52.20
32330;BME280;18807;52.434;13.238;2023-04-27T07:56:06;77135.16;;;-142.05;51.62
32330;BME280;18807;52.434;13.238;2023-04-27T08:03:43;77143.31;;;-142.05;49.18
32330;BME280;18807;52.434;13.238;2023-04-27T08:11:17;77116.78;;;-142.05;49.74
32330;BME280;18807;52.434;13.238;2023-04-27T08:18:53;77061.66;;;-142.05;49.59
32330;BME280;18807;52.434;13.238;2023-04-27T08:26:30;77096.38;;;-142.05;49.54
32330;BME280;18807;52.434;13.238;2023-04-27T08:34:23;77096.38;;;-142.05;50.68
32330;BME280;18807;52.434;13.238;2023-04-27T08:41:57;77110.66;;;-142.05;50.24
32330;BME280;18807;52.434;13.238;2023-04-27T08:49:32;77082.06;;;-142.05;50.05
32330;BME280;18807;52.434;13.238;2023-04-27T08:57:10;77037.16;;;-142.05;47.88
32330;BME280;18807;52.434;13.238;2023-04-27T09:04:46;77047.38;;;-142.05;47.18
32330;BME280;18807;52.434;13.238;2023-04-27T09:12:21;76951.41;;;-142.05;47.74
32330;BME280;18807;52.434;13.238;2023-04-27T09:20:07;76998.38;;;-142.05;46.94
32330;BME280;18807;52.434;13.238;2023-04-27T09:27:43;77016.75;;;-142.05;47.17
32330;BME280;18807;52.434;13.238;2023-04-27T09:35:21;77059.63;;;-142.05;46.57
32330;BME280;18807;52.434;13.238;2023-04-27T09:42:57;77082.06;;;-142.05;46.23
32330;BME280;18807;52.434;13.238;2023-04-27T09:50:36;77059.63;;;-142.05;47.63
32330;BME280;18807;52.434;13.238;2023-04-27T09:58:33;77026.97;;;-142.05;46.85
32330;BME280;18807;52.434;13.238;2023-04-27T10:06:58;77037.16;;;-142.05;46.42
32330;BME280;18807;52.434;13.238;2023-04-27T10:14:33;77020.84;;;-142.05;44.69
32330;BME280;18807;52.434;13.238;2023-04-27T10:22:08;76967.75;;;-142.05;44.96
32330;BME280;18807;52.434;13.238;2023-04-27T10:29:44;76892.22;;;-142.05;45.55
32330;BME280;18807;52.434;13.238;2023-04-27T10:37:41;76841.19;;;-142.05;42.96
32330;BME280;18807;52.434;13.238;2023-04-27T10:45:25;76841.19;;;-142.05;41.37
32330;BME280;18807;52.434;13.238;2023-04-27T10:53:06;76879.97;;;-142.05;41.41
32330;BME280;18807;52.434;13.238;2023-04-27T11:00:40;76886.09;;;-142.05;40.63
32330;BME280;18807;52.434;13.238;2023-04-27T11:08:18;76869.75;;;-142.05;39.51
32330;BME280;18807;52.434;13.238;2023-04-27T11:15:54;76822.81;;;-142.05;40.03
32330;BME280;18807;52.434;13.238;2023-04-27T11:23:31;76812.59;;;-142.05;40.71
32330;BME280;18807;52.434;13.238;2023-04-27T11:31:08;76812.59;;;-142.05;39.11
32330;BME280;18807;52.434;13.238;2023-04-27T11:38:46;76833.00;;;-142.05;39.79
32330;BME280;18807;52.434;13.238;2023-04-27T11:46:37;76818.72;;;-142.05;38.15
32330;BME280;18807;52.434;13.238;2023-04-27T11:54:14;76828.94;;;-142.05;38.04
32330;BME280;18807;52.434;13.238;2023-04-27T12:01:50;76814.66;;;-142.05;38.67
32330;BME280;18807;52.434;13.238;2023-04-27T12:09:25;76804.44;;;-142.05;37.37
32330;BME280;18807;52.434;13.238;2023-04-27T12:17:00;76798.31;;;-142.05;35.91
32330;BME280;18807;52.434;13.238;2023-04-27T12:24:35;76792.19;;;-142.05;36.13
32330;BME280;18807;52.434;13.238;2023-04-27T12:32:09;76722.78;;;-142.05;36.22
32330;BME280;18807;52.434;13.238;2023-04-27T12:39:45;76769.72;;;-142.05;36.09
32330;BME280;18807;52.434;13.238;2023-04-27T12:47:20;76763.63;;;-142.05;37.44
32330;BME280;18807;52.434;13.238;2023-04-27T12:54:59;76757.50;;;-142.05;37.94
32330;BME280;18807;52.434;13.238;2023-04-27T13:02:33;76749.31;;;-142.05;37.40
32330;BME280;18807;52.434;13.238;2023-04-27T13:10:09;76747.28;;;-142.05;36.99
32330;BME280;18807;52.434;13.238;2023-04-27T13:17:44;76739.13;;;-142.05;36.32
32330;BME280;18807;52.434;13.238;2023-04-27T13:25:19;76698.28;;;-142.05;36.29
32330;BME280;18807;52.434;13.238;2023-04-27T13:32:53;76690.13;;;-142.05;35.60
32330;BME280;18807;52.434;13.238;2023-04-27T13:40:47;76698.28;;;-142.05;35.33
32330;BME280;18807;52.434;13.238;2023-04-27T13:48:21;76673.78;;;-142.05;36.65
32330;BME280;18807;52.434;13.238;2023-04-27T13:55:57;76651.34;;;-142.05;36.48
32330;BME280;18807;52.434;13.238;2023-04-27T14:03:32;76661.53;;;-142.05;36.05
32330;BME280;18807;52.434;13.238;2023-04-27T14:11:10;76679.91;;;-142.05;35.22
32330;BME280;18807;52.434;13.238;2023-04-27T14:18:44;76694.22;;;-142.05;36.12
32330;BME280;18807;52.434;13.238;2023-04-27T14:26:20;76600.31;;;-142.05;36.30
32330;BME280;18807;52.434;13.238;2023-04-27T14:33:54;76553.34;;;-142.05;34.91
32330;BME280;18807;52.434;13.238;2023-04-27T14:41:31;76535.00;;;-142.05;32.04
32330;BME280;18807;52.434;13.238;2023-04-27T14:49:05;76516.63;;;-142.05;32.78
32330;BME280;18807;52.434;13.238;2023-04-27T14:56:41;76467.63;;;-142.05;33.59
32330;BME280;18807;52.434;13.238;2023-04-27T15:04:14;76498.25;;;-142.05;34.16
32330;BME280;18807;52.434;13.238;2023-04-27T15:11:50;76451.31;;;-142.05;33.91
32330;BME280;18807;52.434;13.238;2023-04-27T15:19:24;76461.50;;;-142.05;33.17
32330;BME280;18807;52.434;13.238;2023-04-27T15:26:59;76343.13;;;-142.05;32.96
32330;BME280;18807;52.434;13.238;2023-04-27T15:34:35;76285.97;;;-142.05;32.60
32330;BME280;18807;52.434;13.238;2023-04-27T15:42:10;76310.47;;;-142.05;32.72
32330;BME280;18807;52.434;13.238;2023-04-27T15:49:44;76285.97;;;-142.05;31.53
32330;BME280;18807;52.434;13.238;2023-04-27T15:57:30;76281.88;;;-142.05;31.17
32330;BME280;18807;52.434;13.238;2023-04-27T16:05:05;76271.69;;;-142.05;31.11
32330;BME280;18807;52.434;13.238;2023-04-27T16:12:42;76275.75;;;-142.05;31.15
32330;BME280;18807;52.434;13.238;2023-04-27T16:20:16;76245.16;;;-142.05;31.55
32330;BME280;18807;52.434;13.238;2023-04-27T16:27:52;76292.09;;;-142.05;31.33
32330;BME280;18807;52.434;13.238;2023-04-27T16:35:26;76341.09;;;-142.05;31.95
32330;BME280;18807;52.434;13.238;2023-04-27T16:43:03;76390.06;;;-142.05;31.93
32330;BME280;18807;52.434;13.238;2023-04-27T16:50:37;76381.91;;;-142.05;31.79
32330;BME280;18807;52.434;13.238;2023-04-27T16:58:14;76410.47;;;-142.05;32.25
32330;BME280;18807;52.434;13.238;2023-04-27T17:05:48;76445.19;;;-142.05;32.86
32330;BME280;18807;52.434;13.238;2023-04-27T17:13:24;76492.13;;;-142.05;32.99
32330;BME280;18807;52.434;13.238;2023-04-27T17:20:58;76510.50;;;-142.05;33.87
32330;BME280;18807;52.434;13.238;2023-04-27T17:28:34;76551.31;;;-142.05;34.25
32330;BME280;18807;52.434;13.238;2023-04-27T17:36:11;76567.66;;;-142.05;34.52
32330;BME280;18807;52.434;13.238;2023-04-27T17:43:47;76577.84;;;-142.05;34.49
32330;BME280;18807;52.434;13.238;2023-04-27T17:51:22;76604.38;;;-142.05;34.45
32330;BME280;18807;52.434;13.238;2023-04-27T17:58:57;76635.00;;;-142.05;34.83
32330;BME280;18807;52.434;13.238;2023-04-27T18:06:31;76649.28;;;-142.05;36.62
32330;BME280;18807;52.434;13.238;2023-04-27T18:14:07;76673.78;;;-142.05;38.02
32330;BME280;18807;52.434;13.238;2023-04-27T18:21:41;76716.66;;;-142.05;38.87
32330;BME280;18807;52.434;13.238;2023-04-27T18:29:16;76745.25;;;-142.05;39.62
32330;BME280;18807;52.434;13.238;2023-04-27T18:36:50;76775.84;;;-142.05;41.02
32330;BME280;18807;52.434;13.238;2023-04-27T18:44:26;76810.56;;;-142.05;41.79
32330;BME280;18807;52.434;13.238;2023-04-27T18:52:00;76841.19;;;-142.05;42.30
32330;BME280;18807;52.434;13.238;2023-04-27T18:59:53;76877.94;;;-142.05;43.85
32330;BME280;18807;52.434;13.238;2023-04-27T19:07:27;76894.25;;;-142.05;44.50
32330;BME280;18807;52.434;13.238;2023-04-27T19:15:04;76935.09;;;-142.05;44.30
32330;BME280;18807;52.434;13.238;2023-04-27T19:22:38;76961.63;;;-142.05;45.20
32330;BME280;18807;52.434;13.238;2023-04-27T19:30:32;76977.97;;;-142.05;46.79
32330;BME280;18807;52.434;13.238;2023-04-27T19:38:05;77004.50;;;-142.05;47.70
32330;BME280;18807;52.434;13.238;2023-04-27T19:45:41;77024.91;;;-142.05;48.36
32330;BME280;18807;52.434;13.238;2023-04-27T19:53:33;77049.41;;;-142.05;49.09
32330;BME280;18807;52.434;13.238;2023-04-27T20:01:09;77069.81;;;-142.05;50.28
32330;BME280;18807;52.434;13.238;2023-04-27T20:08:45;77098.41;;;-142.05;51.34
32330;BME280;18807;52.434;13.238;2023-04-27T20:16:20;77131.06;;;-142.05;52.50
32330;BME280;18807;52.434;13.238;2023-04-27T20:23:57;77143.31;;;-142.05;52.64
32330;BME280;18807;52.434;13.238;2023-04-27T20:31:32;77163.75;;;-142.05;53.34
32330;BME280;18807;52.434;13.238;2023-04-27T20:39:06;77175.97;;;-142.05;54.03
32330;BME280;18807;52.434;13.238;2023-04-27T20:46:42;77188.22;;;-142.05;55.12
32330;BME280;18807;52.434;13.238;2023-04-27T20:54:34;77206.63;;;-142.05;55.77
32330;BME280;18807;52.434;13.238;2023-04-27T21:02:09;77216.81;;;-142.05;56.29
32330;BME280;18807;52.434;13.238;2023-04-27T21:09:43;77227.03;;;-142.05;56.51
32330;BME280;18807;52.434;13.238;2023-04-27T21:17:19;77235.19;;;-142.05;57.59
32330;BME280;18807;52.434;13.238;2023-04-27T21:24:53;77247.44;;;-142.05;58.53
32330;BME280;18807;52.434;13.238;2023-04-27T21:32:28;77265.81;;;-142.05;59.86
32330;BME280;18807;52.434;13.238;2023-04-27T21:40:03;77276.03;;;-142.05;60.86
32330;BME280;18807;52.434;13.238;2023-04-27T21:47:39;77286.22;;;-142.05;61.44
32330;BME280;18807;52.434;13.238;2023-04-27T21:55:13;77308.69;;;-142.05;62.24
32330;BME280;18807;52.434;13.238;2023-04-27T22:02:49;77318.91;;;-142.05;62.86
32330;BME280;18807;52.434;13.238;2023-04-27T22:10:23;77333.19;;;-142.05;63.11
32330;BME280;18807;52.434;13.238;2023-04-27T22:17:59;77341.34;;;-142.05;63.72
32330;BME280;18807;52.434;13.238;2023-04-27T22:25:34;77361.78;;;-142.05;64.51
32330;BME280;18807;52.434;13.238;2023-04-27T22:33:09;77371.97;;;-142.05;65.24
32330;BME280;18807;52.434;13.238;2023-04-27T22:41:01;77390.34;;;-142.05;66.09
32330;BME280;18807;52.434;13.238;2023-04-27T22:48:36;77400.56;;;-142.05;66.46
32330;BME280;18807;52.434;13.238;2023-04-27T22:56:10;77410.78;;;-142.05;66.62
32330;BME280;18807;52.434;13.238;2023-04-27T23:03:46;77420.97;;;-142.05;66.66
32330;BME280;18807;52.434;13.238;2023-04-27T23:11:20;77429.16;;;-142.05;67.26
32330;BME280;18807;52.434;13.238;2023-04-27T23:18:56;77431.19;;;-142.05;68.15
32330;BME280;18807;52.434;13.238;2023-04-27T23:26:31;77431.19;;;-142.05;68.45
32330;BME280;18807;52.434;13.238;2023-04-27T23:34:23;77437.31;;;-142.05;68.82
32330;BME280;18807;52.434;13.238;2023-04-27T23:41:57;77433.25;;;-142.05;68.96
32330;BME280;18807;52.434;13.238;2023-04-27T23:49:33;77431.19;;;-142.05;69.41
32330;BME280;18807;52.434;13.238;2023-04-27T23:57:08;77451.63;;;-142.05;69.72
